Time;durP1;ratioP1;P1;durP2;ratioP2;P2;SDS_P1;SDS_P2;PMS_P1;PMS_P2;Temp;Humidity;BMP_temperature;BMP_pressure;BME280_temperature;BME280_humidity;BME280_pressure;Samples;Min_cycle;Max_cycle;Signal;HPM_P1;HPM_P2
2021/12/21 00:01:24;;;;;;;27.48;12.50;;;-3272.40;97.60;;;;;;5005024;28;20121;-75
2021/12/21 00:03:49;;;;;;;27.27;12.23;;;-3272.40;97.60;;;;;;4998260;28;20037;-77
2021/12/21 00:06:15;;;;;;;26.83;12.60;;;-3272.50;97.60;;;;;;5005711;28;20053;-78
2021/12/21 00:08:40;;;;;;;28.98;11.70;;;-3272.40;97.60;;;;;;4991670;28;20520;-75
2021/12/21 00:11:06;;;;;;;25.60;12.20;;;-3272.40;97.60;;;;;;4989858;28;20117;-76
2021/12/21 00:16:09;;;;;;;22.58;12.68;;;-3272.30;97.50;;;;;;5000242;28;20491;-78
2021/12/21 00:18:41;;;;;;;23.48;11.68;;;-3272.40;97.60;;;;;;4997150;28;20022;-77
2021/12/21 00:21:20;;;;;;;28.85;11.85;;;-3272.30;97.50;;;;;;4993130;28;20030;-76
2021/12/21 00:23:49;;;;;;;22.58;11.93;;;-3272.30;97.50;;;;;;4988677;28;20057;-77
2021/12/21 00:26:19;;;;;;;23.52;13.20;;;-3272.30;97.50;;;;;;4989813;28;20045;-75
2021/12/21 00:31:18;;;;;;;30.52;12.15;;;-3272.30;97.50;;;;;;4988546;28;20105;-75
2021/12/21 00:33:46;;;;;;;27.25;13.20;;;-3272.20;97.40;;;;;;5001151;28;20099;-76
2021/12/21 00:36:12;;;;;;;29.63;13.25;;;-3272.20;97.40;;;;;;4995195;28;20040;-76
2021/12/21 00:38:38;;;;;;;23.98;13.15;;;-3272.30;97.50;;;;;;4989468;28;20100;-76
2021/12/21 00:41:04;;;;;;;28.50;14.00;;;-3272.30;97.40;;;;;;5002705;28;20385;-75
2021/12/21 00:43:31;;;;;;;28.85;14.13;;;-3272.30;97.50;;;;;;5004369;28;20413;-76
2021/12/21 00:45:56;;;;;;;28.15;14.25;;;-3272.30;97.40;;;;;;4991829;28;20022;-75
2021/12/21 00:48:27;;;;;;;34.95;15.10;;;-3272.40;97.50;;;;;;5003336;28;20095;-76
2021/12/21 00:50:53;;;;;;;26.02;14.15;;;-3272.30;97.30;;;;;;4997226;28;20030;-77
2021/12/21 00:53:19;;;;;;;32.63;14.45;;;-3272.20;97.30;;;;;;5008676;28;20079;-75
2021/12/21 00:55:44;;;;;;;32.78;13.38;;;-3272.20;97.30;;;;;;4998764;28;20085;-76
2021/12/21 00:58:10;;;;;;;30.17;14.57;;;-3272.20;97.30;;;;;;4997926;28;20045;-75
2021/12/21 01:00:35;;;;;;;29.38;13.93;;;-3272.20;97.30;;;;;;4995201;28;20036;-75
2021/12/21 01:03:07;;;;;;;28.52;14.43;;;-3272.10;97.20;;;;;;5008023;28;20381;-77
2021/12/21 01:05:43;;;;;;;29.92;14.00;;;-3272.10;97.20;;;;;;4987458;28;20434;-79
2021/12/21 01:08:12;;;;;;;29.38;14.70;;;-3272.10;97.20;;;;;;4986171;28;20030;-75
2021/12/21 01:13:25;;;;;;;28.55;13.55;;;-3272.00;97.20;;;;;;4986578;28;20508;-77
2021/12/21 01:16:12;;;;;;;24.15;12.82;;;-3272.00;97.20;;;;;;4998146;28;20235;-75
2021/12/21 01:18:52;;;;;;;24.08;12.90;;;-3272.10;97.20;;;;;;4999444;28;20030;-79
2021/12/21 01:21:21;;;;;;;26.52;13.38;;;-3272.00;97.20;;;;;;4982157;28;20030;-77
2021/12/21 01:24:09;;;;;;;26.98;13.32;;;-3272.00;97.10;;;;;;4991368;28;20356;-75
2021/12/21 01:26:48;;;;;;;24.35;12.30;;;-3272.00;97.10;;;;;;4991580;28;20512;-79
2021/12/21 01:31:53;;;;;;;32.03;13.65;;;-3272.00;97.10;;;;;;4994311;28;20125;-77
2021/12/21 01:36:52;;;;;;;33.00;13.50;;;-3272.00;97.10;;;;;;4995944;28;20121;-79
2021/12/21 01:51:58;;;;;;;25.92;12.25;;;-3272.00;97.20;;;;;;4996431;28;20030;-78
2021/12/21 01:54:24;;;;;;;30.75;13.07;;;-3271.90;97.10;;;;;;4995282;28;20623;-78
2021/12/21 01:56:49;;;;;;;31.77;13.02;;;-3271.90;97.10;;;;;;4991048;28;20095;-74
2021/12/21 01:59:15;;;;;;;78.38;16.90;;;-3271.90;97.10;;;;;;4984239;28;20113;-78
2021/12/21 02:01:41;;;;;;;66.28;17.15;;;-3272.00;97.20;;;;;;5003843;28;20412;-75
2021/12/21 02:04:08;;;;;;;63.92;17.63;;;-3272.10;97.30;;;;;;4998691;28;20065;-79
2021/12/21 02:06:34;;;;;;;54.97;18.92;;;-3272.10;97.20;;;;;;4997179;28;20180;-77
2021/12/21 02:09:00;;;;;;;57.00;18.05;;;-3272.10;97.20;;;;;;4992729;28;20190;-76
2021/12/21 02:11:25;;;;;;;52.45;18.20;;;-3272.10;97.20;;;;;;4992443;28;20038;-77
2021/12/21 02:13:52;;;;;;;58.78;18.88;;;-3272.10;97.30;;;;;;4987252;28;20497;-79
2021/12/21 02:16:28;;;;;;;57.60;17.88;;;-3272.10;97.30;;;;;;4993074;28;20634;-75
2021/12/21 02:19:21;;;;;;;74.68;18.48;;;-3272.10;97.30;;;;;;4991440;28;20030;-78
2021/12/21 02:21:51;;;;;;;43.00;17.17;;;-3272.10;97.30;;;;;;5001200;28;20033;-75
2021/12/21 02:24:21;;;;;;;48.03;17.00;;;-3272.00;97.30;;;;;;4994310;28;20125;-75
2021/12/21 02:29:33;;;;;;;38.45;15.77;;;-3272.00;97.40;;;;;;4989505;28;20121;-74
2021/12/21 02:31:59;;;;;;;37.10;14.52;;;-3272.10;97.40;;;;;;4988023;28;20022;-80
2021/12/21 02:34:25;;;;;;;31.40;15.35;;;-3272.00;97.40;;;;;;4990839;28;20595;-77
2021/12/21 02:36:53;;;;;;;41.25;15.95;;;-3272.00;97.40;;;;;;4995578;28;20118;-80
2021/12/21 02:39:19;;;;;;;30.88;14.30;;;-3271.90;97.30;;;;;;4985960;28;20461;-79
2021/12/21 02:41:46;;;;;;;38.65;14.93;;;-3271.80;97.30;;;;;;4995727;28;20080;-77
2021/12/21 02:44:12;;;;;;;32.15;14.30;;;-3271.80;97.30;;;;;;4997444;28;20026;-80
2021/12/21 02:46:39;;;;;;;31.60;14.32;;;-3271.80;97.40;;;;;;4993950;28;20845;-75
2021/12/21 02:49:06;;;;;;;32.63;14.38;;;-3271.70;97.30;;;;;;4995709;28;20058;-78
2021/12/21 02:51:32;;;;;;;34.63;13.93;;;-3271.70;97.30;;;;;;4994235;28;20022;-75
2021/12/21 02:53:57;;;;;;;24.70;12.63;;;-3271.70;97.30;;;;;;4985134;28;20026;-77
2021/12/21 02:56:23;;;;;;;33.28;14.02;;;-3271.70;97.40;;;;;;4988704;28;20026;-78
2021/12/21 02:58:49;;;;;;;28.60;13.38;;;-3271.70;97.40;;;;;;4987537;28;20187;-75
2021/12/21 03:01:15;;;;;;;30.20;14.38;;;-3271.70;97.40;;;;;;4995942;28;20033;-75
2021/12/21 03:03:40;;;;;;;28.17;12.82;;;-3271.70;97.40;;;;;;5013751;28;20037;-77
2021/12/21 03:06:12;;;;;;;26.40;12.77;;;-3271.90;97.50;;;;;;4997159;28;20037;-74
2021/12/21 03:08:39;;;;;;;28.08;13.77;;;-3272.00;97.60;;;;;;5002840;28;20022;-76
2021/12/21 03:11:35;;;;;;;29.80;14.75;;;-3271.90;97.30;;;;;;5007119;28;20477;-76
2021/12/21 03:14:04;;;;;;;25.80;13.77;;;-3272.00;97.30;;;;;;4989225;28;20563;-79
2021/12/21 03:16:35;;;;;;;30.58;14.93;;;-3272.00;97.30;;;;;;4998997;28;20042;-77
2021/12/21 03:19:02;;;;;;;32.55;15.43;;;-3272.10;97.40;;;;;;4992905;28;20477;-78
2021/12/21 03:21:28;;;;;;;38.35;17.17;;;-3272.00;97.30;;;;;;4998169;28;20204;-76
2021/12/21 03:23:55;;;;;;;44.65;17.15;;;-3272.20;97.50;;;;;;4991233;28;20137;-76
2021/12/21 03:26:21;;;;;;;33.67;16.13;;;-3272.20;97.40;;;;;;4994028;28;20040;-75
2021/12/21 03:28:46;;;;;;;31.40;16.63;;;-3272.10;97.30;;;;;;4990618;28;20030;-75
2021/12/21 03:31:12;;;;;;;38.72;16.63;;;-3272.10;97.40;;;;;;5001751;28;20026;-80
2021/12/21 03:33:38;;;;;;;39.33;16.90;;;-3272.10;97.30;;;;;;4990819;28;20030;-79
2021/12/21 03:36:05;;;;;;;49.28;17.88;;;-3272.00;97.20;;;;;;4997309;28;20176;-79
2021/12/21 03:38:32;;;;;;;37.67;16.23;;;-3271.90;97.20;;;;;;4991550;28;20769;-77
2021/12/21 03:41:09;;;;;;;29.80;15.43;;;-3271.90;97.20;;;;;;4994356;28;20479;-75
2021/12/21 03:43:35;;;;;;;34.72;15.25;;;-3271.80;97.20;;;;;;5002723;28;20083;-78
2021/12/21 03:46:09;;;;;;;35.70;15.50;;;-3271.80;97.20;;;;;;4999679;28;20654;-79
2021/12/21 03:48:35;;;;;;;33.47;15.23;;;-3271.80;97.20;;;;;;4995507;28;20033;-75
2021/12/21 03:51:02;;;;;;;31.80;14.55;;;-3271.80;97.20;;;;;;4996556;28;20023;-81
2021/12/21 03:53:27;;;;;;;32.15;14.27;;;-3271.70;97.10;;;;;;4985455;28;20029;-80
2021/12/21 03:56:05;;;;;;;30.92;14.98;;;-3271.70;97.20;;;;;;4992278;28;20109;-75
2021/12/21 03:58:31;;;;;;;31.17;13.35;;;-3271.70;97.10;;;;;;4988326;28;20038;-76
2021/12/21 04:00:57;;;;;;;28.05;13.73;;;-3271.80;97.20;;;;;;4993037;28;20026;-78
2021/12/21 04:03:22;;;;;;;27.08;12.75;;;-3271.80;97.20;;;;;;4999066;28;20121;-77
2021/12/21 04:05:48;;;;;;;32.80;13.75;;;-3271.90;97.20;;;;;;4997860;28;20507;-75
2021/12/21 04:08:13;;;;;;;24.15;12.77;;;-3271.70;97.00;;;;;;4993238;28;20076;-77
2021/12/21 04:10:38;;;;;;;25.85;12.52;;;-3271.70;96.90;;;;;;4998409;28;20101;-77
2021/12/21 04:13:04;;;;;;;40.90;13.80;;;-3271.60;96.90;;;;;;5007387;28;20699;-78
2021/12/21 04:15:34;;;;;;;37.80;13.65;;;-3271.70;97.00;;;;;;5003052;28;20124;-75
2021/12/21 04:18:02;;;;;;;31.63;12.85;;;-3271.70;96.90;;;;;;4994917;28;20085;-76
2021/12/21 04:20:27;;;;;;;32.80;13.35;;;-3271.70;96.90;;;;;;4989295;28;20060;-77
2021/12/21 04:22:53;;;;;;;46.47;14.35;;;-3271.60;96.80;;;;;;4997585;28;20109;-74
2021/12/21 04:25:18;;;;;;;41.42;13.18;;;-3271.70;96.80;;;;;;4996901;28;20109;-74
2021/12/21 04:27:44;;;;;;;43.97;14.63;;;-3271.80;96.80;;;;;;4992533;28;20109;-76
2021/12/21 04:30:10;;;;;;;43.08;13.88;;;-3271.80;96.80;;;;;;4997982;28;20029;-74
2021/12/21 04:32:35;;;;;;;44.28;14.90;;;-3271.80;96.70;;;;;;5002528;28;20132;-75
2021/12/21 04:35:01;;;;;;;41.97;15.55;;;-3271.80;96.60;;;;;;5002486;28;20469;-77
2021/12/21 04:37:27;;;;;;;44.25;15.57;;;-3271.80;96.60;;;;;;4998696;28;20125;-79
2021/12/21 04:40:03;;;;;;;42.42;14.77;;;-3271.80;96.60;;;;;;4999274;28;20053;-77
2021/12/21 04:42:28;;;;;;;43.30;16.25;;;-3271.90;96.60;;;;;;4999178;28;20084;-81
2021/12/21 04:44:54;;;;;;;47.78;16.13;;;-3271.90;96.70;;;;;;5014569;28;20041;-75
2021/12/21 04:47:20;;;;;;;51.08;17.15;;;-3271.90;96.60;;;;;;5009016;28;20112;-74
2021/12/21 04:49:45;;;;;;;51.28;17.50;;;-3271.90;96.60;;;;;;5001009;28;20361;-76
2021/12/21 04:52:11;;;;;;;59.22;17.30;;;-3271.90;96.70;;;;;;4998129;28;20041;-74
2021/12/21 04:54:37;;;;;;;66.10;19.00;;;-3272.00;96.80;;;;;;4990246;28;20034;-75
2021/12/21 04:57:02;;;;;;;54.80;16.38;;;-3272.00;96.80;;;;;;4992087;28;20125;-74
2021/12/21 04:59:28;;;;;;;61.55;19.98;;;-3272.00;96.80;;;;;;4997821;28;20848;-76
2021/12/21 05:01:54;;;;;;;66.28;18.98;;;-3272.10;96.90;;;;;;5014762;28;20053;-79
2021/12/21 05:04:20;;;;;;;75.53;20.08;;;-3272.10;96.90;;;;;;5008714;28;20022;-80
2021/12/21 05:06:46;;;;;;;107.50;21.60;;;-3272.20;97.00;;;;;;5000509;28;20108;-75
2021/12/21 05:09:21;;;;;;;79.53;21.50;;;-3272.30;97.10;;;;;;4987825;28;20054;-81
2021/12/21 05:11:47;;;;;;;81.10;20.98;;;-3272.20;97.00;;;;;;4987885;28;20030;-77
2021/12/21 05:14:13;;;;;;;57.47;21.23;;;-3272.20;97.10;;;;;;4996486;28;20019;-77
2021/12/21 05:16:38;;;;;;;56.33;17.92;;;-3272.10;97.10;;;;;;4985448;28;20038;-75
2021/12/21 05:19:04;;;;;;;56.88;19.00;;;-3272.00;97.00;;;;;;4994339;28;20034;-64
2021/12/21 05:21:29;;;;;;;52.80;18.88;;;-3272.00;97.10;;;;;;5003960;28;20116;-64
2021/12/21 05:23:55;;;;;;;44.40;16.65;;;-3271.90;97.10;;;;;;5006526;28;20133;-65
2021/12/21 05:26:20;;;;;;;40.92;16.63;;;-3271.80;97.10;;;;;;4992755;28;20044;-65
2021/12/21 05:28:46;;;;;;;41.35;17.20;;;-3271.80;97.10;;;;;;4986914;28;20069;-67
2021/12/21 05:31:11;;;;;;;37.45;16.13;;;-3271.80;97.20;;;;;;4994276;28;20022;-66
2021/12/21 05:33:37;;;;;;;36.88;15.75;;;-3271.70;97.20;;;;;;4993934;28;20041;-67
2021/12/21 05:36:03;;;;;;;38.70;16.35;;;-3271.70;97.20;;;;;;4989252;28;20875;-66
2021/12/21 05:38:32;;;;;;;33.97;16.17;;;-3271.70;97.10;;;;;;4998337;28;20025;-67
2021/12/21 05:41:01;;;;;;;34.47;15.52;;;-3271.70;97.20;;;;;;5005507;28;20060;-66
2021/12/21 05:43:27;;;;;;;38.78;16.05;;;-3271.70;97.20;;;;;;4999069;28;20042;-66
2021/12/21 05:45:52;;;;;;;38.72;15.05;;;-3271.70;97.20;;;;;;4989861;28;20032;-66
2021/12/21 05:48:18;;;;;;;36.80;15.15;;;-3271.70;97.20;;;;;;4983154;28;20100;-66
2021/12/21 05:50:43;;;;;;;39.22;15.45;;;-3271.70;97.10;;;;;;4990876;28;20137;-66
2021/12/21 05:53:09;;;;;;;39.30;15.52;;;-3271.70;97.10;;;;;;4986887;28;20030;-66
2021/12/21 05:55:34;;;;;;;31.60;14.68;;;-3271.60;97.00;;;;;;4989802;28;20038;-66
2021/12/21 05:58:00;;;;;;;41.88;15.93;;;-3271.60;97.00;;;;;;4988486;28;20109;-66
2021/12/21 06:00:29;;;;;;;33.40;14.85;;;-3271.60;97.10;;;;;;4993746;28;20089;-66
2021/12/21 06:02:55;;;;;;;34.53;15.82;;;-3271.80;97.20;;;;;;4993571;28;20022;-66
2021/12/21 06:05:21;;;;;;;37.25;16.30;;;-3271.80;97.20;;;;;;4996053;28;20429;-66
2021/12/21 06:07:49;;;;;;;35.50;16.45;;;-3271.80;97.00;;;;;;4994061;28;20078;-66
2021/12/21 06:10:22;;;;;;;34.28;15.15;;;-3271.70;96.90;;;;;;4993680;28;20029;-66
2021/12/21 06:13:14;;;;;;;30.52;16.63;;;-3271.70;96.90;;;;;;4986415;28;20155;-66
2021/12/21 06:26:28;;;;;;;78.85;21.95;;;-3271.90;97.00;;;;;;4992050;28;20042;-65
2021/12/21 06:28:54;;;;;;;74.50;22.75;;;-3271.90;97.00;;;;;;4997775;28;20433;-66
2021/12/21 06:31:20;;;;;;;60.85;21.17;;;-3271.90;97.10;;;;;;4992923;28;20679;-65
2021/12/21 06:33:46;;;;;;;72.80;21.98;;;-3271.90;97.10;;;;;;5005433;28;20036;-66
2021/12/21 06:36:11;;;;;;;83.90;22.60;;;-3271.90;97.10;;;;;;5000058;28;20063;-66
2021/12/21 06:38:38;;;;;;;67.40;22.20;;;-3271.80;97.10;;;;;;4998725;28;20048;-66
2021/12/21 06:41:03;;;;;;;71.20;22.75;;;-3271.90;97.20;;;;;;4993695;28;20219;-64
2021/12/21 06:43:31;;;;;;;78.40;22.67;;;-3271.90;97.20;;;;;;5004500;28;20033;-64
2021/12/21 06:46:14;;;;;;;78.95;24.60;;;-3271.90;97.30;;;;;;4997500;28;20026;-64
2021/12/21 06:51:35;;;;;;;56.08;23.33;;;-3271.90;97.20;;;;;;4997304;28;20045;-65
2021/12/21 06:54:00;;;;;;;66.90;21.20;;;-3271.80;97.20;;;;;;5004385;28;20033;-65
2021/12/21 06:56:27;;;;;;;65.38;22.30;;;-3271.80;97.20;;;;;;5005620;28;20072;-64
2021/12/21 06:58:54;;;;;;;84.50;22.75;;;-3271.80;97.30;;;;;;4999182;28;20026;-64
2021/12/21 07:01:20;;;;;;;84.80;24.02;;;-3271.80;97.30;;;;;;5000313;28;20445;-64
2021/12/21 07:03:45;;;;;;;95.45;25.00;;;-3271.70;97.40;;;;;;5001200;28;20117;-64
2021/12/21 07:06:12;;;;;;;74.30;22.60;;;-3271.70;97.30;;;;;;4993854;28;20477;-65
2021/12/21 07:12:35;;;;;;;84.68;23.58;;;-3271.70;97.40;;;;;;4997597;28;20030;-65
2021/12/21 07:20:07;;;;;;;49.15;21.58;;;-3271.60;97.40;;;;;;4982245;28;20030;-66
2021/12/21 07:22:33;;;;;;;48.50;21.40;;;-3271.60;97.40;;;;;;4971425;28;20049;-66
2021/12/21 07:24:58;;;;;;;53.70;23.08;;;-3271.60;97.40;;;;;;4986385;28;20497;-66
2021/12/21 07:27:24;;;;;;;47.88;21.30;;;-3271.50;97.30;;;;;;5003079;28;20033;-66
2021/12/21 07:29:49;;;;;;;38.83;19.10;;;-3271.50;97.30;;;;;;4992460;28;20401;-66
2021/12/21 07:32:15;;;;;;;42.78;19.83;;;-3271.40;97.30;;;;;;4991455;28;20100;-65
2021/12/21 07:34:41;;;;;;;46.92;19.10;;;-3271.50;97.30;;;;;;4998831;28;20022;-64
2021/12/21 07:37:09;;;;;;;50.17;21.13;;;-3271.40;97.30;;;;;;5000732;28;20113;-64
2021/12/21 07:39:36;;;;;;;49.20;19.38;;;-3271.40;97.20;;;;;;5003124;28;20500;-65
2021/12/21 07:42:04;;;;;;;40.35;19.85;;;-3271.40;97.20;;;;;;4995651;28;20190;-65
2021/12/21 07:44:29;;;;;;;44.45;21.55;;;-3271.40;97.20;;;;;;4996891;28;20538;-65
2021/12/21 07:46:55;;;;;;;51.22;21.30;;;-3271.40;97.10;;;;;;4998286;28;20022;-65
2021/12/21 07:49:21;;;;;;;45.08;20.05;;;-3271.40;97.10;;;;;;4997738;28;20127;-66
2021/12/21 07:51:48;;;;;;;43.72;20.67;;;-3271.40;97.10;;;;;;4996342;28;20046;-65
2021/12/21 07:54:14;;;;;;;47.05;20.50;;;-3271.40;97.00;;;;;;5000648;28;20044;-65
2021/12/21 07:56:40;;;;;;;44.92;21.92;;;-3271.40;97.00;;;;;;4998652;28;20026;-65
2021/12/21 07:59:06;;;;;;;44.15;20.02;;;-3271.40;97.00;;;;;;5002115;28;20056;-65
2021/12/21 08:01:32;;;;;;;44.10;20.25;;;-3271.40;97.00;;;;;;4996501;28;20417;-65
2021/12/21 08:03:57;;;;;;;36.38;19.40;;;-3271.40;96.90;;;;;;4998246;28;20044;-65
2021/12/21 08:06:25;;;;;;;41.92;19.40;;;-3271.40;96.90;;;;;;4994787;28;20125;-65
2021/12/21 08:08:52;;;;;;;42.10;20.63;;;-3271.40;96.70;;;;;;4990559;28;20030;-65
2021/12/21 08:14:06;;;;;;;38.90;19.08;;;-3271.40;96.70;;;;;;4981221;28;20133;-65
2021/12/21 08:16:32;;;;;;;43.72;20.90;;;-3271.50;96.70;;;;;;4995878;28;20026;-65
2021/12/21 08:18:58;;;;;;;44.30;21.50;;;-3271.50;96.60;;;;;;4996961;28;20037;-65
2021/12/21 08:21:25;;;;;;;39.35;20.52;;;-3271.50;96.50;;;;;;4991541;28;20083;-65
2021/12/21 08:23:51;;;;;;;44.78;21.58;;;-3271.50;96.60;;;;;;4994359;28;20026;-65
2021/12/21 08:26:17;;;;;;;43.70;22.27;;;-3271.60;96.60;;;;;;4990075;28;20812;-65
2021/12/21 08:28:42;;;;;;;43.95;22.10;;;-3271.60;96.60;;;;;;4992442;28;20118;-65
2021/12/21 08:31:11;;;;;;;42.33;22.25;;;-3271.70;96.60;;;;;;5009181;28;20102;-65
2021/12/21 08:33:37;;;;;;;45.78;21.48;;;-3271.80;96.60;;;;;;5005624;28;20034;-66
2021/12/21 08:36:04;;;;;;;49.65;22.50;;;-3271.80;96.50;;;;;;4991475;28;20451;-66
2021/12/21 08:38:31;;;;;;;46.00;23.25;;;-3271.80;96.50;;;;;;4990416;28;20061;-65
2021/12/21 08:40:59;;;;;;;49.70;24.02;;;-3271.90;96.50;;;;;;4996983;28;20033;-66
2021/12/21 08:43:27;;;;;;;52.58;25.80;;;-3272.00;96.50;;;;;;4995745;28;20124;-65
2021/12/21 08:45:54;;;;;;;58.85;26.38;;;-3272.00;96.50;;;;;;4996122;28;20101;-66
2021/12/21 08:48:20;;;;;;;59.28;27.20;;;-3272.20;96.60;;;;;;4996842;28;20673;-66
2021/12/21 08:50:48;;;;;;;56.50;27.75;;;-3272.30;96.60;;;;;;4995965;28;20038;-66
2021/12/21 08:53:14;;;;;;;53.97;27.02;;;-3272.30;96.60;;;;;;5000488;28;20099;-67
2021/12/21 08:55:41;;;;;;;54.75;26.00;;;-3272.30;96.60;;;;;;4998620;28;20029;-66
2021/12/21 08:58:08;;;;;;;55.08;27.42;;;-3272.30;96.60;;;;;;4998072;28;20292;-66
2021/12/21 09:00:33;;;;;;;60.10;28.25;;;-3272.40;96.60;;;;;;4992746;28;20029;-66
2021/12/21 09:02:59;;;;;;;63.42;29.33;;;-3272.40;96.60;;;;;;4994742;28;20033;-66
2021/12/21 09:05:28;;;;;;;65.15;32.05;;;-3272.50;96.70;;;;;;4985988;28;20522;-66
2021/12/21 09:07:54;;;;;;;70.22;31.55;;;-3272.60;96.70;;;;;;4990975;28;20036;-66
2021/12/21 09:10:22;;;;;;;92.43;39.05;;;-3272.70;96.70;;;;;;4993660;28;20038;-66
2021/12/21 09:12:48;;;;;;;83.53;38.05;;;-3272.70;96.70;;;;;;4990055;28;20507;-66
2021/12/21 09:15:16;;;;;;;92.15;40.42;;;-3272.70;96.80;;;;;;4987261;28;20109;-67
2021/12/21 09:17:42;;;;;;;93.63;42.80;;;-3272.80;96.80;;;;;;4992117;28;20118;-66
2021/12/21 09:20:09;;;;;;;93.05;41.42;;;-3272.90;96.90;;;;;;4999990;28;20025;-66
2021/12/21 09:22:36;;;;;;;88.18;39.88;;;-3272.90;96.90;;;;;;5005152;28;20513;-67
2021/12/21 09:25:01;;;;;;;92.38;39.00;;;-3273.10;97.00;;;;;;4984073;28;20026;-66
2021/12/21 09:27:27;;;;;;;87.07;39.58;;;-3273.10;97.10;;;;;;4990491;28;20038;-66
2021/12/21 09:29:53;;;;;;;84.55;37.80;;;-3273.20;97.10;;;;;;4986427;28;20023;-66
2021/12/21 09:32:19;;;;;;;84.50;37.90;;;-3273.30;97.00;;;;;;4999189;28;20030;-66
2021/12/21 09:34:47;;;;;;;86.68;36.63;;;-3273.40;97.10;;;;;;4988135;28;20499;-66
2021/12/21 09:37:16;;;;;;;72.20;36.58;;;-3273.50;97.10;;;;;;4974556;28;20497;-67
2021/12/21 09:39:43;;;;;;;77.00;35.05;;;-3273.60;97.20;;;;;;4990032;28;20109;-66
2021/12/21 09:42:13;;;;;;;90.80;37.83;;;-3273.80;97.10;;;;;;4988200;28;20079;-66
2021/12/21 09:44:39;;;;;;;81.40;39.65;;;-3274.00;97.20;;;;;;4995771;28;20105;-66
2021/12/21 09:47:06;;;;;;;79.60;39.05;;;-3274.20;97.30;;;;;;4990396;28;20070;-67
2021/12/21 09:49:32;;;;;;;87.93;39.92;;;-3274.40;97.20;;;;;;4992652;28;20061;-66
2021/12/21 09:51:57;;;;;;;93.18;42.33;;;-3274.60;97.40;;;;;;5012255;28;20049;-66
2021/12/21 09:54:26;;;;;;;85.38;40.40;;;-3274.80;97.50;;;;;;4990396;28;20046;-66
2021/12/21 09:56:51;;;;;;;84.20;40.78;;;-3275.00;97.40;;;;;;4993218;28;20040;-67
2021/12/21 09:59:17;;;;;;;79.88;40.00;;;-3275.00;97.40;;;;;;4993234;28;20030;-66
2021/12/21 10:01:42;;;;;;;81.57;38.30;;;-3275.20;97.30;;;;;;4999684;28;20489;-67
2021/12/21 10:04:08;;;;;;;81.47;38.63;;;-3275.20;97.30;;;;;;4987528;28;20504;-67
2021/12/21 10:06:48;;;;;;;81.75;38.35;;;-3275.30;97.20;;;;;;4997979;28;20136;-66
2021/12/21 10:09:15;;;;;;;83.35;38.38;;;-3275.40;97.20;;;;;;4982037;28;20038;-66
2021/12/21 10:11:47;;;;;;;75.57;37.72;;;-3275.40;97.10;;;;;;4990464;28;20030;-66
2021/12/21 10:14:15;;;;;;;77.25;35.63;;;-3275.40;97.10;;;;;;4997485;28;20060;-67
2021/12/21 10:16:41;;;;;;;73.05;35.20;;;-3275.40;97.00;;;;;;4995430;28;20030;-66
2021/12/21 10:19:07;;;;;;;74.65;35.35;;;-3275.40;97.00;;;;;;4966707;28;21411;-67
2021/12/21 10:21:44;;;;;;;70.53;33.80;;;-3275.50;96.90;;;;;;4945735;28;20037;-64
2021/12/21 10:24:20;;;;;;;66.50;35.15;;;-3275.40;96.90;;;;;;4994800;28;20064;-65
2021/12/21 10:26:46;;;;;;;71.40;31.90;;;-3275.50;96.90;;;;;;4988229;28;20035;-67
2021/12/21 10:29:15;;;;;;;64.88;30.55;;;-3275.50;96.90;;;;;;4996465;28;20048;-65
2021/12/21 10:31:42;;;;;;;56.75;29.67;;;-3275.50;96.80;;;;;;4999881;28;20030;-65
2021/12/21 10:34:28;;;;;;;61.15;30.98;;;-3275.50;96.80;;;;;;4987662;28;20022;-64
2021/12/21 10:36:54;;;;;;;52.40;29.70;;;-3275.50;96.90;;;;;;4992928;28;20022;-65
2021/12/21 10:39:22;;;;;;;58.58;29.50;;;-3275.50;97.00;;;;;;4989144;28;20053;-65
2021/12/21 10:41:48;;;;;;;51.42;28.30;;;-3275.40;96.90;;;;;;4984628;28;20034;-65
2021/12/21 10:44:18;;;;;;;63.03;30.25;;;-3275.50;97.00;;;;;;4998017;28;20046;-65
2021/12/21 10:46:53;;;;;;;63.17;30.17;;;-3275.60;97.00;;;;;;4997918;28;20448;-65
2021/12/21 10:49:24;;;;;;;61.53;32.05;;;-3275.70;96.90;;;;;;4990456;28;20397;-65
2021/12/21 10:51:54;;;;;;;;;;;-3275.80;96.90;;;;;;4992443;28;20451;-65
2021/12/21 10:54:34;;;;;;;67.50;35.35;;;-3275.90;96.90;;;;;;4990058;28;20585;-65
2021/12/21 10:57:10;;;;;;;78.68;36.20;;;-3276.00;96.90;;;;;;4986615;28;20023;-65
2021/12/21 10:59:37;;;;;;;69.22;36.35;;;-3276.10;96.80;;;;;;4993730;28;20147;-65
2021/12/21 11:02:15;;;;;;;73.07;37.10;;;-3276.20;96.70;;;;;;4996071;28;20029;-65
2021/12/21 11:04:44;;;;;;;74.60;38.55;;;-3276.30;96.70;;;;;;4985511;28;20059;-65
2021/12/21 11:07:35;;;;;;;84.63;40.88;;;-3276.50;96.70;;;;;;4988687;28;20037;-67
2021/12/21 11:10:13;;;;;;;;;;;-3276.50;96.60;;;;;;4997965;28;20030;-65
2021/12/21 11:12:47;;;;;;;71.45;37.33;;;-3276.50;96.10;;;;;;4986560;28;20296;-65
2021/12/21 11:15:14;;;;;;;76.55;38.13;;;-3276.70;96.40;;;;;;4995956;28;20074;-65
2021/12/21 11:17:41;;;;;;;80.70;41.13;;;0.00;96.30;;;;;;4990607;28;20053;-65
2021/12/21 11:20:09;;;;;;;84.30;39.60;;;0.10;96.30;;;;;;4990084;28;20030;-65
2021/12/21 11:22:37;;;;;;;66.38;37.22;;;0.10;96.20;;;;;;4990631;28;20037;-66
2021/12/21 11:25:04;;;;;;;59.13;33.78;;;0.20;96.20;;;;;;4995418;28;20719;-66
2021/12/21 11:27:31;;;;;;;48.65;28.60;;;0.40;96.30;;;;;;5000150;28;20145;-65
2021/12/21 11:30:01;;;;;;;45.85;26.23;;;0.40;95.90;;;;;;5001665;28;20437;-65
2021/12/21 11:32:30;;;;;;;33.85;22.20;;;0.50;95.80;;;;;;4995904;28;20030;-65
2021/12/21 11:37:42;;;;;;;29.50;18.67;;;0.70;95.40;;;;;;4993962;28;20122;-66
2021/12/21 11:40:11;;;;;;;24.17;15.70;;;0.70;94.60;;;;;;5001892;28;20401;-66
2021/12/21 11:42:51;;;;;;;21.20;14.73;;;0.90;94.20;;;;;;4988214;28;20045;-66
2021/12/21 11:45:35;;;;;;;19.85;13.32;;;1.00;93.70;;;;;;4997639;28;20606;-66
2021/12/21 11:48:17;;;;;;;22.42;12.77;;;1.00;93.00;;;;;;5001559;28;20045;-66
2021/12/21 11:50:46;;;;;;;19.08;11.65;;;1.10;92.80;;;;;;4994558;28;20068;-66
2021/12/21 11:53:14;;;;;;;20.48;11.73;;;1.20;92.70;;;;;;4991870;28;20026;-66
2021/12/21 11:55:43;;;;;;;14.65;10.65;;;1.20;92.40;;;;;;4999596;28;20025;-66
2021/12/21 11:58:25;;;;;;;15.38;10.38;;;1.30;91.80;;;;;;4999114;28;20578;-67
2021/12/21 12:00:58;;;;;;;16.92;10.07;;;1.50;91.90;;;;;;4995669;28;20042;-67
2021/12/21 12:03:26;;;;;;;16.55;9.88;;;1.50;91.60;;;;;;5000246;28;20056;-67
2021/12/21 12:05:53;;;;;;;13.60;8.75;;;1.60;91.80;;;;;;5008773;28;20076;-67
2021/12/21 12:08:21;;;;;;;13.23;9.27;;;1.60;91.70;;;;;;5003204;28;20053;-66
2021/12/21 12:10:58;;;;;;;13.27;8.85;;;1.60;91.60;;;;;;5000184;28;20044;-67
2021/12/21 12:13:43;;;;;;;13.68;8.90;;;1.70;91.70;;;;;;5000034;28;20046;-66
2021/12/21 12:16:13;;;;;;;16.10;8.63;;;1.70;91.00;;;;;;4993656;28;20037;-66
2021/12/21 12:18:44;;;;;;;12.82;8.50;;;1.70;91.50;;;;;;5004540;28;20083;-66
2021/12/21 12:21:23;;;;;;;15.35;8.43;;;1.80;91.30;;;;;;5003760;28;20034;-66
2021/12/21 12:23:54;;;;;;;12.30;8.32;;;2.00;91.30;;;;;;4987655;28;20154;-66
2021/12/21 12:26:37;;;;;;;14.70;8.05;;;2.10;90.80;;;;;;5006666;28;20420;-66
2021/12/21 12:29:18;;;;;;;11.77;7.72;;;1.90;90.10;;;;;;5000732;28;20049;-67
2021/12/21 12:32:01;;;;;;;13.90;7.90;;;2.00;91.20;;;;;;4989589;28;20022;-67
2021/12/21 12:34:31;;;;;;;10.50;7.35;;;2.00;90.70;;;;;;4993749;28;20432;-66
2021/12/21 12:36:58;;;;;;;16.23;8.30;;;1.80;90.90;;;;;;5003789;28;20026;-66
2021/12/21 12:39:44;;;;;;;11.68;7.32;;;1.70;91.40;;;;;;4995197;28;20076;-66
2021/12/21 12:42:18;;;;;;;14.88;8.68;;;1.60;91.80;;;;;;4997990;28;20066;-66
2021/12/21 12:44:45;;;;;;;17.17;8.38;;;1.50;92.20;;;;;;5006156;28;20052;-66
2021/12/21 12:47:13;;;;;;;18.90;8.32;;;1.20;92.00;;;;;;4996291;28;20018;-66
2021/12/21 12:49:52;;;;;;;13.02;9.13;;;1.10;92.00;;;;;;4990529;28;20060;-66
2021/12/21 12:52:19;;;;;;;12.90;7.97;;;1.00;92.30;;;;;;4990973;28;20018;-68
2021/12/21 12:54:57;;;;;;;14.63;8.30;;;0.90;92.70;;;;;;4994036;28;20126;-66
2021/12/21 12:57:26;;;;;;;16.27;8.75;;;0.80;93.10;;;;;;4993848;28;20025;-66
2021/12/21 12:59:54;;;;;;;14.35;8.48;;;0.70;93.30;;;;;;4997503;28;20026;-66
2021/12/21 13:02:19;;;;;;;20.00;9.27;;;0.60;93.50;;;;;;4991128;28;20037;-66
2021/12/21 13:04:45;;;;;;;17.50;9.10;;;0.70;93.80;;;;;;4989689;28;20241;-66
2021/12/21 13:07:11;;;;;;;18.80;9.90;;;0.60;93.80;;;;;;4983945;28;20421;-66
2021/12/21 13:09:36;;;;;;;18.08;9.75;;;0.50;93.90;;;;;;4983197;28;20737;-66